Time;durP1;ratioP1;P1;durP2;ratioP2;P2;SDS_P1;SDS_P2;PMS_P1;PMS_P2;Temp;Humidity;BMP_temperature;BMP_pressure;BME280_temperature;BME280_humidity;BME280_pressure;Samples;Min_cycle;Max_cycle;Signal;HPM_P1;HPM_P2
2024/01/23 00:02:06;;;;;;;14.50;8.50;;;;;;;4.42;84.60;100025.91;5054994;28;20267;-62
2024/01/23 00:04:34;;;;;;;15.03;8.93;;;;;;;4.44;84.46;100036.97;5056275;28;20317;-61
2024/01/23 00:07:02;;;;;;;10.37;7.80;;;;;;;4.41;84.88;100036.09;5063023;28;20292;-61
2024/01/23 00:09:30;;;;;;;13.93;8.53;;;;;;;4.44;84.90;100036.13;5068591;28;20228;-60
2024/01/23 00:11:58;;;;;;;12.57;9.23;;;;;;;4.43;85.13;100035.28;5067576;28;20263;-60
2024/01/23 00:14:27;;;;;;;13.60;8.67;;;;;;;4.43;85.29;100039.53;5064066;28;20205;-60
2024/01/23 00:16:55;;;;;;;12.63;8.73;;;;;;;4.43;85.37;100055.69;5066810;28;20213;-60
2024/01/23 00:19:23;;;;;;;11.23;8.63;;;;;;;4.45;85.75;100046.34;5063807;28;20202;-60
2024/01/23 00:21:51;;;;;;;13.90;9.77;;;;;;;4.46;85.38;100044.66;5055394;28;20206;-61
2024/01/23 00:24:19;;;;;;;11.30;8.50;;;;;;;4.43;85.35;100024.22;5060728;28;20214;-59
2024/01/23 00:26:47;;;;;;;13.97;8.93;;;;;;;4.44;85.39;100031.88;5065910;28;20201;-64
2024/01/23 00:29:15;;;;;;;11.50;8.83;;;;;;;4.44;85.35;100036.13;5060835;28;20633;-61
2024/01/23 00:31:44;;;;;;;13.87;8.33;;;;;;;4.41;85.37;100047.13;5061989;28;20292;-60
2024/01/23 00:34:12;;;;;;;12.43;8.83;;;;;;;4.42;85.41;100037.78;5069403;28;20217;-62
2024/01/23 00:36:41;;;;;;;15.20;9.27;;;;;;;4.43;85.13;100039.53;5066823;28;20194;-62
2024/01/23 00:39:09;;;;;;;16.23;9.90;;;;;;;4.43;85.36;100039.53;5056897;28;20213;-62
2024/01/23 00:41:38;;;;;;;14.13;9.23;;;;;;;4.43;85.18;100044.63;5067536;28;20236;-59
2024/01/23 00:44:06;;;;;;;12.73;9.27;;;;;;;4.41;85.27;100048.84;5068626;28;20217;-60
2024/01/23 00:46:34;;;;;;;15.70;10.23;;;;;;;4.41;85.26;100043.75;5060041;28;20272;-62
2024/01/23 00:49:03;;;;;;;15.90;9.50;;;;;;;4.39;85.19;100043.72;5073371;28;20228;-60
2024/01/23 00:51:31;;;;;;;12.50;9.23;;;;;;;4.38;85.45;100041.13;5073050;28;20201;-59
2024/01/23 00:54:00;;;;;;;13.13;9.57;;;;;;;4.36;85.42;100033.47;5069183;28;20359;-61
2024/01/23 00:56:28;;;;;;;14.40;10.20;;;;;;;4.37;85.18;100037.72;5071032;28;20204;-62
2024/01/23 00:58:56;;;;;;;16.07;9.83;;;;;;;4.35;85.37;100037.72;5068852;28;20407;-60
2024/01/23 01:01:24;;;;;;;14.00;9.57;;;;;;;4.35;85.03;100040.28;5068836;28;20255;-59
2024/01/23 01:03:52;;;;;;;16.13;9.73;;;;;;;4.34;85.28;100041.13;5060662;28;20308;-58
2024/01/23 01:06:21;;;;;;;15.00;9.73;;;;;;;4.35;85.45;100042.84;5066220;28;20197;-61
2024/01/23 01:08:49;;;;;;;15.43;10.57;;;;;;;4.36;85.25;100053.88;5068202;28;20278;-60
2024/01/23 01:11:17;;;;;;;16.80;10.70;;;;;;;4.35;85.05;100062.38;5068448;28;20837;-57
2024/01/23 01:13:45;;;;;;;14.53;9.83;;;;;;;4.36;85.02;100057.28;5061332;28;20202;-61
2024/01/23 01:16:13;;;;;;;14.53;9.97;;;;;;;4.38;85.17;100061.53;5067204;28;20219;-62
2024/01/23 01:18:41;;;;;;;15.97;10.77;;;;;;;4.38;85.05;100069.19;5069419;28;20201;-61
2024/01/23 01:21:09;;;;;;;14.60;9.63;;;;;;;4.40;84.62;100049.69;5068203;28;20225;-60
2024/01/23 01:23:38;;;;;;;14.97;10.30;;;;;;;4.40;84.65;100065.00;5060623;28;20278;-62
2024/01/23 01:26:06;;;;;;;15.03;10.87;;;;;;;4.42;84.49;100068.41;5064809;28;20210;-60
2024/01/23 01:28:34;;;;;;;14.30;10.47;;;;;;;4.41;84.48;100071.78;5071749;28;20641;-62
2024/01/23 01:31:02;;;;;;;15.57;9.87;;;;;;;4.42;84.59;100064.19;5069668;28;20656;-61
2024/01/23 01:33:30;;;;;;;12.03;9.40;;;;;;;4.43;84.14;100065.88;5067791;28;20708;-60
2024/01/23 01:35:58;;;;;;;12.27;9.40;;;;;;;4.44;84.26;100069.28;5070368;28;20205;-60
2024/01/23 01:38:26;;;;;;;14.97;10.17;;;;;;;4.43;84.21;100071.00;5070924;28;20205;-62
2024/01/23 01:40:57;;;;;;;14.23;10.40;;;;;;;4.44;84.21;100070.16;5071695;28;20296;-60
2024/01/23 01:43:28;;;;;;;13.87;9.13;;;;;;;4.44;84.16;100066.75;5068436;28;20247;-60
2024/01/23 01:46:12;;;;;;;11.90;8.83;;;;;;;4.46;84.08;100080.41;5071122;28;20583;-60
2024/01/23 01:48:41;;;;;;;14.33;9.23;;;;;;;4.49;84.04;100062.53;5072150;28;20229;-59
2024/01/23 01:51:11;;;;;;;13.57;9.10;;;;;;;4.50;83.71;100062.59;5070747;28;20260;-61
2024/01/23 01:53:40;;;;;;;11.90;8.43;;;;;;;4.51;83.71;100060.88;5064312;28;20283;-61
2024/01/23 01:56:10;;;;;;;14.17;9.07;;;;;;;4.53;83.72;100054.97;5071012;28;20652;-60
2024/01/23 01:58:39;;;;;;;13.23;8.73;;;;;;;4.57;83.83;100060.97;5059996;28;20206;-61
2024/01/23 02:01:07;;;;;;;13.33;8.77;;;;;;;4.59;83.30;100061.84;5061849;28;20229;-61
2024/01/23 02:03:35;;;;;;;12.67;8.37;;;;;;;4.61;83.39;100067.84;5067979;28;20209;-61
2024/01/23 02:06:04;;;;;;;12.23;9.10;;;;;;;4.65;83.04;100068.72;5070358;28;20263;-64
2024/01/23 02:08:35;;;;;;;11.27;8.70;;;;;;;4.67;83.09;100073.00;5061622;28;20284;-59
2024/01/23 02:11:03;;;;;;;13.80;9.57;;;;;;;4.68;82.90;100090.03;5068119;28;20254;-61
2024/01/23 02:13:33;;;;;;;13.57;8.40;;;;;;;4.68;82.63;100084.94;5068948;28;20201;-60
2024/01/23 02:16:00;;;;;;;14.27;9.17;;;;;;;4.68;82.95;100078.97;5071214;28;20201;-64
2024/01/23 02:18:28;;;;;;;12.10;8.03;;;;;;;4.70;82.69;100080.69;5068331;28;20657;-62
2024/01/23 02:20:57;;;;;;;10.13;7.63;;;;;;;4.71;82.82;100084.09;5068476;28;20676;-62
2024/01/23 02:23:28;;;;;;;12.57;8.37;;;;;;;4.71;82.42;100091.75;5061402;28;20679;-59
2024/01/23 02:25:57;;;;;;;10.97;7.80;;;;;;;4.71;82.61;100086.66;5061221;28;20387;-61
2024/01/23 02:28:25;;;;;;;11.03;7.67;;;;;;;4.73;82.08;100096.06;5065495;28;20216;-60
2024/01/23 02:30:53;;;;;;;13.67;7.83;;;;;;;4.73;82.46;100085.84;5069213;28;20241;-60
2024/01/23 02:33:21;;;;;;;11.47;7.80;;;;;;;4.73;82.01;100090.94;5066648;28;20212;-61
2024/01/23 02:35:49;;;;;;;11.63;7.80;;;;;;;4.73;82.08;100098.59;5070459;28;21160;-61
2024/01/23 02:38:17;;;;;;;13.20;7.87;;;;;;;4.72;82.35;100098.59;5069099;28;20197;-61
2024/01/23 02:40:46;;;;;;;13.67;7.77;;;;;;;4.72;82.07;100094.34;5067439;28;20258;-60
2024/01/23 02:43:14;;;;;;;9.43;7.13;;;;;;;4.71;82.25;100097.72;5063850;28;20579;-60
2024/01/23 02:45:42;;;;;;;11.90;8.00;;;;;;;4.69;82.26;100089.19;5063235;28;20333;-62
2024/01/23 02:48:10;;;;;;;13.77;8.53;;;;;;;4.71;81.82;100090.06;5069619;28;20205;-59
2024/01/23 02:50:38;;;;;;;15.07;8.80;;;;;;;4.69;81.85;100094.31;5065415;28;20246;-62
2024/01/23 02:53:06;;;;;;;11.60;8.07;;;;;;;4.70;82.09;100096.00;5063896;28;20205;-62
2024/01/23 02:55:34;;;;;;;11.20;7.43;;;;;;;4.71;81.97;100096.84;5062070;28;20656;-61
2024/01/23 02:58:04;;;;;;;11.17;7.87;;;;;;;4.68;81.93;100100.25;5061835;28;20228;-62
2024/01/23 03:00:32;;;;;;;11.20;7.57;;;;;;;4.67;82.25;100111.28;5063454;28;20296;-60
2024/01/23 03:03:00;;;;;;;10.83;7.47;;;;;;;4.68;81.59;100107.06;5067193;28;20301;-62
2024/01/23 03:05:29;;;;;;;11.63;7.70;;;;;;;4.68;81.96;100120.66;5070389;28;20205;-61
2024/01/23 03:07:57;;;;;;;13.17;8.67;;;;;;;4.68;81.52;100130.03;5067044;28;20233;-59
2024/01/23 03:10:25;;;;;;;13.03;7.40;;;;;;;4.70;81.75;100128.34;5058487;28;20206;-60
2024/01/23 03:12:53;;;;;;;11.97;7.87;;;;;;;4.71;81.75;100124.94;5063216;28;20661;-59
2024/01/23 03:15:22;;;;;;;9.53;7.53;;;;;;;4.72;81.64;100119.00;5066512;28;20653;-60
2024/01/23 03:17:50;;;;;;;12.53;7.17;;;;;;;4.74;81.08;100123.28;5062785;28;20237;-62
2024/01/23 03:20:18;;;;;;;11.27;7.40;;;;;;;4.75;81.25;100125.03;5065665;28;20653;-60
2024/01/23 03:22:46;;;;;;;10.60;7.07;;;;;;;4.75;81.47;100135.22;5070742;28;20673;-61
2024/01/23 03:25:14;;;;;;;9.63;7.10;;;;;;;4.76;81.06;100113.97;5064879;28;20246;-61
2024/01/23 03:27:42;;;;;;;9.40;7.10;;;;;;;4.76;80.86;100121.63;5054076;28;20209;-61
2024/01/23 03:30:29;;;;;;;11.70;7.50;;;;;;;4.76;81.11;100125.88;5063999;28;20213;-62
2024/01/23 03:32:58;;;;;;;10.43;7.20;;;;;;;4.74;80.75;100128.38;5062356;28;20209;-62
2024/01/23 03:35:26;;;;;;;11.73;7.10;;;;;;;4.71;81.09;100119.81;5069042;28;20213;-62
2024/01/23 03:37:54;;;;;;;10.50;6.60;;;;;;;4.68;81.53;100113.00;5062086;28;20262;-59
2024/01/23 03:40:22;;;;;;;11.27;7.50;;;;;;;4.65;81.09;100112.97;5063797;28;20296;-61
2024/01/23 03:42:49;;;;;;;13.43;8.40;;;;;;;4.64;81.42;100115.47;5069327;28;20716;-61
2024/01/23 03:45:18;;;;;;;12.33;7.10;;;;;;;4.62;81.44;100123.13;5063449;28;20209;-60
2024/01/23 03:47:47;;;;;;;8.43;7.13;;;;;;;4.61;81.43;100131.63;5070949;28;20545;-61
2024/01/23 03:50:15;;;;;;;11.57;7.43;;;;;;;4.58;81.65;100132.44;5066598;28;20240;-62
2024/01/23 03:52:43;;;;;;;11.73;7.67;;;;;;;4.57;81.53;100119.66;5070239;28;20287;-65
2024/01/23 03:55:12;;;;;;;14.13;8.03;;;;;;;4.54;81.76;100119.63;5069538;28;20258;-61
2024/01/23 03:57:40;;;;;;;11.63;7.60;;;;;;;4.52;82.03;100127.22;5070768;28;20571;-57
2024/01/23 04:00:09;;;;;;;11.30;7.00;;;;;;;4.49;82.11;100123.78;5065464;28;20202;-57
2024/01/23 04:02:37;;;;;;;10.53;7.70;;;;;;;4.47;82.11;100128.88;5061631;28;20214;-57
2024/01/23 04:05:08;;;;;;;10.33;7.03;;;;;;;4.45;82.30;100127.13;5066918;28;20201;-59
2024/01/23 04:07:35;;;;;;;10.83;7.03;;;;;;;4.43;82.04;100124.56;5066321;28;20208;-60
2024/01/23 04:10:05;;;;;;;13.23;7.07;;;;;;;4.43;82.00;100139.03;5068169;28;20762;-56
2024/01/23 04:12:32;;;;;;;11.10;7.07;;;;;;;4.40;82.26;100132.16;5066756;28;20224;-57
2024/01/23 04:15:00;;;;;;;12.90;7.83;;;;;;;4.38;82.42;100128.72;5067866;28;20552;-57
2024/01/23 04:17:29;;;;;;;10.67;7.33;;;;;;;4.36;82.24;100138.91;5069389;28;20229;-56
2024/01/23 04:19:57;;;;;;;12.20;7.53;;;;;;;4.34;82.55;100137.16;5069290;28;20289;-57
2024/01/23 04:22:27;;;;;;;10.33;7.23;;;;;;;4.32;82.37;100144.81;5056796;28;20193;-57
2024/01/23 04:24:55;;;;;;;11.47;7.80;;;;;;;4.33;82.51;100161.81;5062458;28;20213;-59
2024/01/23 04:27:23;;;;;;;14.17;8.43;;;;;;;4.32;82.25;100154.16;5064588;28;20688;-57
2024/01/23 04:29:51;;;;;;;12.23;7.43;;;;;;;4.28;82.59;100158.34;5064873;28;20575;-57
2024/01/23 04:32:20;;;;;;;11.37;7.13;;;;;;;4.28;82.55;100147.28;5069250;28;20212;-58
2024/01/23 04:34:48;;;;;;;9.93;6.93;;;;;;;4.26;82.61;100154.91;5067783;28;20282;-57
2024/01/23 04:37:16;;;;;;;12.80;6.90;;;;;;;4.26;82.83;100174.47;5067794;28;20703;-58
2024/01/23 04:39:48;;;;;;;13.73;7.67;;;;;;;4.24;82.85;100171.03;5073157;28;20270;-56
2024/01/23 04:42:17;;;;;;;12.67;7.37;;;;;;;4.23;82.82;100166.75;5067941;28;20292;-57
2024/01/23 04:44:45;;;;;;;12.03;7.53;;;;;;;4.23;82.88;100159.97;5069815;28;20204;-57
2024/01/23 04:47:13;;;;;;;12.53;7.00;;;;;;;4.22;82.90;100165.91;5072092;28;20216;-56
2024/01/23 04:49:41;;;;;;;14.43;6.70;;;;;;;4.22;82.80;100162.50;5069921;28;20241;-57
2024/01/23 04:52:09;;;;;;;14.50;7.20;;;;;;;4.21;83.21;100178.63;5073159;28;20214;-58
2024/01/23 04:54:37;;;;;;;10.90;6.60;;;;;;;4.19;82.98;100178.59;5072748;28;20197;-58
2024/01/23 04:57:06;;;;;;;12.73;6.73;;;;;;;4.18;82.69;100179.44;5073129;28;20617;-57
2024/01/23 04:59:34;;;;;;;10.23;6.67;;;;;;;4.17;83.08;100172.63;5064837;28;20688;-58
2024/01/23 05:02:02;;;;;;;11.83;7.30;;;;;;;4.17;83.42;100179.41;5061031;28;20678;-57
2024/01/23 05:04:30;;;;;;;11.93;7.03;;;;;;;4.17;83.72;100179.41;5062383;28;20724;-57
2024/01/23 05:06:58;;;;;;;13.13;6.67;;;;;;;4.18;83.41;100192.19;5070516;28;20602;-60
2024/01/23 05:09:30;;;;;;;11.93;6.57;;;;;;;4.17;83.55;100189.63;5069554;28;20197;-58
2024/01/23 05:11:59;;;;;;;12.67;7.07;;;;;;;4.17;83.44;100190.47;5066283;28;20201;-58
2024/01/23 05:14:28;;;;;;;9.70;6.23;;;;;;;4.18;83.46;100191.34;5072949;28;20201;-58
2024/01/23 05:16:56;;;;;;;9.87;6.03;;;;;;;4.14;83.48;100185.31;5072519;28;20204;-60
2024/01/23 05:19:24;;;;;;;10.17;6.77;;;;;;;4.13;83.78;100181.06;5067563;28;20617;-58
2024/01/23 05:21:52;;;;;;;11.43;6.73;;;;;;;4.11;83.54;100182.72;5067463;28;20700;-57
2024/01/23 05:24:20;;;;;;;8.33;6.20;;;;;;;4.10;83.84;100188.66;5069974;28;20701;-57
2024/01/23 05:26:48;;;;;;;10.10;6.53;;;;;;;4.08;83.72;100187.75;5063773;28;20661;-58
2024/01/23 05:29:15;;;;;;;14.77;7.37;;;;;;;4.07;83.91;100192.00;5064770;28;20216;-58
2024/01/23 05:31:45;;;;;;;12.90;7.10;;;;;;;4.04;84.00;100191.94;5067666;28;20732;-59
2024/01/23 05:34:13;;;;;;;9.73;7.23;;;;;;;4.02;83.94;100192.78;5057791;28;20644;-58
2024/01/23 05:36:41;;;;;;;11.47;6.83;;;;;;;3.98;84.62;100201.22;5066358;28;20730;-57
2024/01/23 05:39:08;;;;;;;10.60;7.00;;;;;;;3.96;84.33;100203.72;5068501;28;20198;-58
2024/01/23 05:41:36;;;;;;;12.90;6.63;;;;;;;3.94;84.61;100201.94;5071603;28;20641;-59
2024/01/23 05:44:04;;;;;;;10.87;7.70;;;;;;;3.92;84.71;100198.53;5072236;28;20255;-57
2024/01/23 05:46:34;;;;;;;11.33;7.67;;;;;;;3.87;85.11;100212.06;5070184;28;20221;-60
2024/01/23 05:49:03;;;;;;;11.43;7.27;;;;;;;3.83;84.99;100207.75;5072411;28;20213;-59
2024/01/23 05:51:31;;;;;;;12.90;7.63;;;;;;;3.82;84.83;100215.34;5057494;28;20664;-58
2024/01/23 05:54:00;;;;;;;10.73;6.97;;;;;;;3.79;85.60;100210.19;5056335;28;20209;-57
2024/01/23 05:56:27;;;;;;;14.70;7.43;;;;;;;3.77;85.20;100215.25;5068701;28;20220;-58
2024/01/23 05:58:55;;;;;;;12.13;7.57;;;;;;;3.73;85.16;100216.03;5065418;28;20201;-57
2024/01/23 06:01:23;;;;;;;10.80;7.80;;;;;;;3.72;85.51;100221.09;5071026;28;20201;-59
2024/01/23 06:03:51;;;;;;;15.30;8.40;;;;;;;3.69;86.28;100223.59;5070306;28;20680;-57
2024/01/23 06:06:21;;;;;;;11.40;7.90;;;;;;;3.67;86.07;100228.66;5071465;28;20275;-60
2024/01/23 06:08:49;;;;;;;12.33;7.77;;;;;;;3.66;86.11;100237.13;5064282;28;20768;-56
2024/01/23 06:11:17;;;;;;;15.97;7.90;;;;;;;3.67;86.37;100228.66;5068567;28;20201;-57
2024/01/23 06:13:45;;;;;;;12.00;8.40;;;;;;;3.65;86.94;100230.34;5067323;28;20197;-57
2024/01/23 06:16:13;;;;;;;14.47;8.07;;;;;;;3.65;86.90;100237.97;5065787;28;20317;-56
2024/01/23 06:18:41;;;;;;;11.67;7.70;;;;;;;3.66;86.53;100236.28;5061030;28;20263;-58
2024/01/23 06:21:09;;;;;;;12.60;7.80;;;;;;;3.65;86.86;100235.44;5063774;28;20235;-57
2024/01/23 06:23:38;;;;;;;13.37;8.30;;;;;;;3.63;86.96;100222.63;5066501;28;20209;-60
2024/01/23 06:26:06;;;;;;;14.77;8.17;;;;;;;3.62;86.63;100233.66;5067063;28;20206;-60
2024/01/23 06:28:34;;;;;;;14.03;8.63;;;;;;;3.61;87.00;100226.00;5063631;28;20213;-54
2024/01/23 06:31:02;;;;;;;15.20;8.43;;;;;;;3.64;86.89;100218.41;5065174;28;20587;-57
2024/01/23 06:33:31;;;;;;;13.63;8.93;;;;;;;3.62;87.30;100236.22;5062458;28;20201;-56
2024/01/23 06:35:59;;;;;;;15.70;8.67;;;;;;;3.62;87.51;100245.56;5071241;28;20216;-55
2024/01/23 06:38:27;;;;;;;15.50;8.83;;;;;;;3.62;86.86;100241.31;5065738;28;20217;-55
2024/01/23 06:40:56;;;;;;;15.07;9.17;;;;;;;3.63;87.18;100252.34;5069852;28;20202;-55
2024/01/23 06:43:24;;;;;;;14.57;8.40;;;;;;;3.63;87.46;100257.44;5071665;28;20201;-55
2024/01/23 06:45:52;;;;;;;14.57;8.97;;;;;;;3.65;87.17;100265.16;5071202;28;20201;-55
2024/01/23 06:48:20;;;;;;;13.43;9.43;;;;;;;3.65;87.50;100268.56;5064808;28;20700;-55
2024/01/23 06:50:48;;;;;;;14.43;9.37;;;;;;;3.63;87.54;100265.09;5070881;28;20691;-55
2024/01/23 06:53:16;;;;;;;13.83;9.47;;;;;;;3.66;87.21;100287.25;5071311;28;20255;-54
2024/01/23 06:55:44;;;;;;;15.13;9.90;;;;;;;3.66;87.32;100285.56;5069602;28;20213;-57
2024/01/23 06:58:13;;;;;;;15.77;10.73;;;;;;;3.65;87.52;100285.53;5064813;28;20201;-55
2024/01/23 07:00:41;;;;;;;14.13;9.43;;;;;;;3.65;87.37;100296.59;5070241;28;20209;-57
2024/01/23 07:03:10;;;;;;;15.37;10.07;;;;;;;3.62;87.17;100296.50;5070291;28;20214;-56
2024/01/23 07:05:38;;;;;;;15.63;10.20;;;;;;;3.63;87.39;100295.66;5051672;28;20231;-57
2024/01/23 07:08:07;;;;;;;15.13;9.90;;;;;;;3.63;87.24;100298.22;5066860;28;20672;-56
2024/01/23 07:10:35;;;;;;;15.00;9.97;;;;;;;3.64;87.74;100297.38;5069115;28;20237;-57
2024/01/23 07:13:03;;;;;;;18.03;10.47;;;;;;;3.66;87.51;100300.84;5070215;28;20198;-56
2024/01/23 07:15:33;;;;;;;15.83;11.00;;;;;;;3.66;87.12;100305.94;5068035;28;20247;-55
2024/01/23 07:18:02;;;;;;;13.70;10.37;;;;;;;3.68;87.00;100301.72;5064728;28;20193;-57
2024/01/23 07:20:30;;;;;;;14.87;10.00;;;;;;;3.74;87.22;100311.19;5068928;28;20205;-57
2024/01/23 07:22:58;;;;;;;16.63;10.50;;;;;;;3.73;86.73;100315.44;5067576;28;20250;-56
2024/01/23 07:25:25;;;;;;;17.17;10.90;;;;;;;3.74;86.58;100327.31;5068738;28;20757;-55
2024/01/23 07:27:53;;;;;;;15.93;10.43;;;;;;;3.76;87.29;100328.22;5067166;28;20313;-57
2024/01/23 07:30:21;;;;;;;15.60;10.37;;;;;;;3.81;86.69;100334.28;5068132;28;20305;-60
2024/01/23 07:32:51;;;;;;;15.33;9.90;;;;;;;3.84;86.59;100338.59;5052491;28;20728;-59
2024/01/23 07:35:19;;;;;;;14.83;10.73;;;;;;;3.88;86.45;100330.16;5057971;28;20239;-59
2024/01/23 07:37:47;;;;;;;14.17;10.10;;;;;;;3.97;86.44;100339.66;5069310;28;20229;-63
2024/01/23 07:40:15;;;;;;;16.90;9.97;;;;;;;4.04;86.13;100334.72;5067526;28;20205;-61
2024/01/23 07:42:43;;;;;;;13.53;8.40;;;;;;;4.17;85.44;100343.50;5070278;28;20197;-60
2024/01/23 07:45:12;;;;;;;14.50;9.67;;;;;;;4.28;84.65;100356.44;5070746;28;20710;-61
2024/01/23 07:47:40;;;;;;;12.73;9.33;;;;;;;4.30;84.40;100359.88;5070815;28;20643;-61
2024/01/23 07:50:12;;;;;;;11.87;7.93;;;;;;;4.30;84.78;100355.63;5063293;28;20233;-61
2024/01/23 07:52:40;;;;;;;13.37;8.00;;;;;;;4.34;84.30;100353.97;5066494;28;20197;-61
2024/01/23 07:55:08;;;;;;;15.13;8.93;;;;;;;4.43;84.31;100351.63;5068927;28;20259;-60
2024/01/23 07:57:36;;;;;;;11.27;7.23;;;;;;;4.44;84.36;100355.88;5072562;28;20225;-61
2024/01/23 08:00:06;;;;;;;13.60;8.57;;;;;;;4.48;83.67;100359.34;5071568;28;20197;-61
2024/01/23 08:02:34;;;;;;;11.13;7.43;;;;;;;4.49;83.73;100350.84;5068419;28;20279;-59
2024/01/23 08:05:02;;;;;;;10.93;7.73;;;;;;;4.47;83.84;100363.59;5073477;28;20695;-61
2024/01/23 08:07:32;;;;;;;11.27;7.10;;;;;;;4.47;83.64;100362.75;5072492;28;20209;-60
2024/01/23 08:10:00;;;;;;;11.43;7.23;;;;;;;4.49;83.70;100371.25;5065142;28;20719;-61
2024/01/23 08:12:27;;;;;;;12.13;7.43;;;;;;;4.48;83.94;100365.31;5060912;28;20206;-59
2024/01/23 08:14:56;;;;;;;13.07;7.23;;;;;;;4.51;83.67;100372.16;5071800;28;20197;-61
2024/01/23 08:17:23;;;;;;;12.13;7.23;;;;;;;4.57;83.43;100379.94;5070058;28;20259;-62
2024/01/23 08:19:51;;;;;;;13.10;7.20;;;;;;;4.57;83.17;100364.63;5072027;28;20197;-62
2024/01/23 08:22:19;;;;;;;15.47;6.67;;;;;;;4.59;83.18;100368.06;5072740;28;20201;-60
2024/01/23 08:24:49;;;;;;;10.87;6.47;;;;;;;4.62;83.02;100368.13;5070130;28;20205;-60
2024/01/23 08:27:17;;;;;;;13.80;7.23;;;;;;;4.65;82.99;100378.38;5073608;28;20194;-61
2024/01/23 08:29:45;;;;;;;13.13;7.43;;;;;;;4.67;82.72;100380.94;5070888;28;20711;-59
2024/01/23 08:32:13;;;;;;;11.93;7.03;;;;;;;4.68;82.51;100382.69;5071395;28;20201;-62
2024/01/23 08:34:41;;;;;;;10.07;6.33;;;;;;;4.67;82.34;100384.34;5073139;28;20634;-59
2024/01/23 08:37:09;;;;;;;9.90;6.63;;;;;;;4.67;82.04;100379.25;5069599;28;20296;-61
2024/01/23 08:39:37;;;;;;;12.37;6.40;;;;;;;4.71;82.67;100387.81;5070889;28;20213;-59
2024/01/23 08:42:06;;;;;;;11.83;7.00;;;;;;;4.73;82.25;100386.16;5072136;28;20236;-61
2024/01/23 08:44:35;;;;;;;9.77;6.10;;;;;;;4.77;82.20;100393.91;5072839;28;20345;-60
2024/01/23 08:47:03;;;;;;;10.47;5.80;;;;;;;4.77;81.95;100393.03;5072966;28;20212;-60
2024/01/23 08:49:31;;;;;;;14.60;7.03;;;;;;;4.78;82.01;100395.63;5074282;28;20619;-61
2024/01/23 08:51:59;;;;;;;10.27;6.33;;;;;;;4.80;81.54;100388.84;5071236;28;20747;-61
2024/01/23 08:54:29;;;;;;;12.43;6.27;;;;;;;4.81;81.44;100400.78;5069298;28;20236;-61
2024/01/23 08:56:57;;;;;;;11.47;6.73;;;;;;;4.82;81.74;100401.63;5070457;28;20259;-63
2024/01/23 08:59:28;;;;;;;8.10;6.17;;;;;;;4.84;81.93;100399.97;5067215;28;20313;-59
2024/01/23 09:01:56;;;;;;;9.63;7.17;;;;;;;4.88;81.06;100395.78;5069907;28;20638;-59
2024/01/23 09:04:24;;;;;;;10.07;6.00;;;;;;;4.92;81.28;100407.78;5069842;28;20236;-60
2024/01/23 09:06:53;;;;;;;10.63;6.07;;;;;;;4.99;80.82;100425.78;5067973;28;20211;-60
2024/01/23 09:09:21;;;;;;;11.20;6.30;;;;;;;5.00;80.46;100413.88;5069524;28;20304;-60
2024/01/23 09:11:49;;;;;;;13.03;6.13;;;;;;;5.01;80.70;100413.91;5071908;28;20679;-60
2024/01/23 09:14:16;;;;;;;8.00;5.83;;;;;;;5.10;80.51;100420.84;5066897;28;20296;-59
2024/01/23 09:16:47;;;;;;;9.90;6.07;;;;;;;5.18;80.19;100415.88;5071114;28;20745;-58
2024/01/23 09:19:15;;;;;;;8.20;6.17;;;;;;;5.15;79.88;100426.88;5069941;28;20288;-61
2024/01/23 09:21:43;;;;;;;11.90;6.97;;;;;;;5.13;79.75;100427.72;5070791;28;20201;-60
2024/01/23 09:24:11;;;;;;;9.60;5.53;;;;;;;5.13;79.96;100431.13;5071196;28;20712;-59
2024/01/23 09:26:39;;;;;;;9.70;5.77;;;;;;;5.10;79.54;100431.06;5072080;28;20663;-61
2024/01/23 09:29:07;;;;;;;9.43;5.67;;;;;;;5.10;79.73;100431.06;5066184;28;20266;-60
2024/01/23 09:31:44;;;;;;;12.07;7.03;;;;;;;5.13;79.20;100431.13;5067621;28;20202;-61
2024/01/23 09:34:13;;;;;;;8.97;6.43;;;;;;;5.21;79.20;100444.88;5070783;28;20198;-61
2024/01/23 09:36:42;;;;;;;11.47;6.27;;;;;;;5.24;78.74;100437.25;5071018;28;20201;-60
2024/01/23 09:39:13;;;;;;;12.47;6.87;;;;;;;5.28;78.89;100433.06;5071267;28;20281;-61
2024/01/23 09:41:46;;;;;;;11.40;6.47;;;;;;;5.29;78.28;100435.63;5068237;28;20201;-61
2024/01/23 09:44:15;;;;;;;9.00;5.80;;;;;;;5.29;79.18;100430.53;5057872;28;20600;-61
2024/01/23 09:46:44;;;;;;;9.77;5.77;;;;;;;5.35;78.74;100439.13;5062394;28;20288;-59
2024/01/23 09:49:15;;;;;;;9.17;5.77;;;;;;;5.39;78.15;100435.78;5029231;28;1102975;-60
2024/01/23 09:51:47;;;;;;;10.83;6.37;;;;;;;5.37;78.04;100434.91;5068191;28;20201;-61
2024/01/23 09:54:16;;;;;;;11.23;6.53;;;;;;;5.32;78.40;100443.34;5067513;28;20206;-60
2024/01/23 09:56:44;;;;;;;11.00;5.63;;;;;;;5.29;78.20;100450.97;5067029;28;20289;-60
2024/01/23 09:59:12;;;;;;;10.43;5.57;;;;;;;5.23;78.75;100450.88;5066280;28;20201;-65
2024/01/23 10:01:40;;;;;;;11.80;6.23;;;;;;;5.20;78.69;100449.97;5061696;28;20232;-59
2024/01/23 10:04:08;;;;;;;12.40;5.67;;;;;;;5.16;79.48;100453.31;5061957;28;20216;-61
2024/01/23 10:06:39;;;;;;;11.37;6.47;;;;;;;5.18;78.98;100451.63;5060215;28;20198;-62
2024/01/23 10:09:07;;;;;;;9.97;6.17;;;;;;;5.20;78.67;100449.97;5068874;28;20331;-61
2024/01/23 10:11:36;;;;;;;8.93;5.67;;;;;;;5.18;78.74;100447.38;5067599;28;20910;-58
2024/01/23 10:14:04;;;;;;;11.80;6.10;;;;;;;5.25;79.20;100445.78;5060286;28;20198;-60
2024/01/23 10:16:32;;;;;;;12.53;5.87;;;;;;;5.33;78.59;100456.97;5069903;28;20206;-63
2024/01/23 10:19:02;;;;;;;12.00;5.60;;;;;;;5.34;78.10;100438.28;5067670;28;20243;-61
2024/01/23 10:21:30;;;;;;;10.73;6.37;;;;;;;5.41;78.23;100445.19;5066671;28;20296;-62
2024/01/23 10:24:00;;;;;;;14.53;6.07;;;;;;;5.47;77.62;100449.53;5069485;28;20209;-60
2024/01/23 10:26:28;;;;;;;10.70;5.77;;;;;;;5.51;77.65;100462.38;5071105;28;20202;-60
2024/01/23 10:28:55;;;;;;;8.93;5.20;;;;;;;5.56;77.83;100452.25;5069159;28;20217;-61
2024/01/23 10:31:23;;;;;;;12.07;6.03;;;;;;;5.61;77.69;100450.63;5067067;28;20208;-59
2024/01/23 10:33:51;;;;;;;12.30;5.87;;;;;;;5.69;77.00;100454.16;5071229;28;20685;-60
2024/01/23 10:36:19;;;;;;;12.83;5.70;;;;;;;5.75;76.70;100453.38;5064343;28;20250;-60
2024/01/23 10:38:51;;;;;;;10.67;5.87;;;;;;;5.74;76.75;100460.19;5062052;28;20213;-59
2024/01/23 10:41:21;;;;;;;10.07;5.80;;;;;;;5.76;76.51;100455.97;5070585;28;20691;-59
2024/01/23 10:43:53;;;;;;;9.97;6.27;;;;;;;5.74;76.18;100464.44;5071968;28;20217;-59
2024/01/23 10:46:22;;;;;;;11.10;5.60;;;;;;;5.68;76.54;100449.88;5071649;28;20350;-60
2024/01/23 10:48:50;;;;;;;10.27;5.10;;;;;;;5.64;76.58;100452.38;5063389;28;20213;-62
2024/01/23 10:51:20;;;;;;;9.27;5.23;;;;;;;5.59;77.34;100454.84;5069187;28;20233;-59
2024/01/23 10:53:57;;;;;;;13.73;6.13;;;;;;;5.48;77.15;100446.16;5069022;28;20205;-61
2024/01/23 10:56:29;;;;;;;14.10;6.40;;;;;;;5.42;77.71;100446.06;5069832;28;20258;-59
2024/01/23 10:59:01;;;;;;;13.13;5.83;;;;;;;5.38;78.03;100450.28;5071133;28;20205;-61
2024/01/23 11:01:37;;;;;;;14.60;6.60;;;;;;;5.37;78.00;100463.00;5063475;28;20232;-61
2024/01/23 11:04:05;;;;;;;11.37;5.50;;;;;;;5.34;78.38;100451.06;5069573;28;20213;-61
2024/01/23 11:06:39;;;;;;;15.40;5.80;;;;;;;5.31;78.56;100459.53;5068791;28;20288;-61
2024/01/23 11:09:12;;;;;;;13.77;6.43;;;;;;;5.32;78.28;100462.94;5065355;28;20214;-61
2024/01/23 11:11:50;;;;;;;11.83;6.40;;;;;;;5.28;78.20;100462.03;5065566;28;20680;-61
2024/01/23 11:14:22;;;;;;;10.93;5.57;;;;;;;5.31;78.26;100467.19;5069566;28;20289;-59
2024/01/23 11:17:03;;;;;;;11.97;6.20;;;;;;;5.32;78.40;100470.59;5071182;28;20659;-62
2024/01/23 11:19:35;;;;;;;9.63;6.10;;;;;;;5.32;78.26;100468.91;5073891;28;20196;-65
2024/01/23 11:22:03;;;;;;;11.70;5.73;;;;;;;5.31;78.11;100461.22;5069135;28;20642;-60
2024/01/23 11:24:39;;;;;;;11.87;6.13;;;;;;;5.32;78.02;100479.13;5064227;28;20202;-61
2024/01/23 11:27:18;;;;;;;13.90;6.63;;;;;;;5.33;77.68;100472.31;5069350;28;20735;-59
2024/01/23 11:29:47;;;;;;;13.20;6.40;;;;;;;5.28;78.35;100468.84;5076843;28;20245;-61
2024/01/23 11:32:20;;;;;;;11.07;6.23;;;;;;;5.25;78.68;100474.75;5068486;28;20648;-60